EJA248 KSJC-KLAX
Flight info
| Callsign | EJA248 |
|---|---|
| Flight time | 0h 51m |
| Altitude | 41000 |
| Route | TECKY4 VLREE EBAYE BURGL IRNMN2 |
| Aircraft | CL60/M-SADE3FGHIJ3J4J7P2RWXY/HB1D1 |
Departure
| Time | 2026-04-20 20:19 |
|---|---|
| Airport | Norman Y. Mineta San Jose International Airport (KSJC) |
Arrival
| Time | 2026-04-20 21:11 |
|---|---|
| Airport | Los Angeles International Airport (KLAX) |
| Time | Latitude | Longitude | Altitude | Speed | Heading |
|---|---|---|---|---|---|
| 2026-04-20 19:59 | 37.35703 | -121.92831 | 59 ft | 0 kts | 90° |
| 2026-04-20 20:12 | 37.35720 | -121.92802 | 58 ft | 11 kts | 343° |
| 2026-04-20 20:13 | 37.35770 | -121.92862 | 58 ft | 0 kts | 319° |
| 2026-04-20 20:13 | 37.35813 | -121.92909 | 57 ft | 15 kts | 319° |
| 2026-04-20 20:13 | 37.35923 | -121.93030 | 56 ft | 26 kts | 319° |
| 2026-04-20 20:13 | 37.35980 | -121.93096 | 55 ft | 12 kts | 317° |
| 2026-04-20 20:14 | 37.36033 | -121.93155 | 55 ft | 7 kts | 318° |
| 2026-04-20 20:14 | 37.36085 | -121.93213 | 54 ft | 9 kts | 319° |
| 2026-04-20 20:14 | 37.36146 | -121.93278 | 53 ft | 13 kts | 319° |
| 2026-04-20 20:14 | 37.36211 | -121.93353 | 52 ft | 12 kts | 314° |
| 2026-04-20 20:15 | 37.36268 | -121.93417 | 52 ft | 10 kts | 324° |
| 2026-04-20 20:15 | 37.36330 | -121.93482 | 51 ft | 13 kts | 318° |
| 2026-04-20 20:15 | 37.36390 | -121.93548 | 50 ft | 9 kts | 320° |
| 2026-04-20 20:15 | 37.36450 | -121.93614 | 49 ft | 13 kts | 318° |
| 2026-04-20 20:16 | 37.36525 | -121.93697 | 48 ft | 15 kts | 318° |
| 2026-04-20 20:16 | 37.36614 | -121.93796 | 47 ft | 16 kts | 318° |
| 2026-04-20 20:16 | 37.36706 | -121.93896 | 47 ft | 14 kts | 320° |
| 2026-04-20 20:16 | 37.36779 | -121.93974 | 46 ft | 14 kts | 319° |
| 2026-04-20 20:17 | 37.36833 | -121.94030 | 46 ft | 9 kts | 327° |
| 2026-04-20 20:17 | 37.36897 | -121.94057 | 46 ft | 10 kts | 352° |
| 2026-04-20 20:17 | 37.36976 | -121.94043 | 45 ft | 10 kts | 32° |
| 2026-04-20 20:17 | 37.37042 | -121.94028 | 45 ft | 11 kts | 336° |
| 2026-04-20 20:18 | 37.37092 | -121.94073 | 45 ft | 13 kts | 320° |
| 2026-04-20 20:18 | 37.37157 | -121.94144 | 45 ft | 11 kts | 319° |
| 2026-04-20 20:18 | 37.37228 | -121.94170 | 45 ft | 11 kts | 29° |
| 2026-04-20 20:18 | 37.37257 | -121.94078 | 44 ft | 14 kts | 113° |
| 2026-04-20 20:19 | 37.37035 | -121.93825 | 45 ft | 103 kts | 139° |
| 2026-04-20 20:19 | 37.36207 | -121.92908 | 277 ft | 198 kts | 137° |
| 2026-04-20 20:19 | 37.35217 | -121.91681 | 1102 ft | 197 kts | 133° |
| 2026-04-20 20:19 | 37.34251 | -121.90501 | 1772 ft | 202 kts | 137° |
| 2026-04-20 20:20 | 37.33187 | -121.89291 | 2514 ft | 210 kts | 137° |
| 2026-04-20 20:20 | 37.32048 | -121.87991 | 3327 ft | 239 kts | 137° |
| 2026-04-20 20:20 | 37.30798 | -121.86563 | 4679 ft | 254 kts | 137° |
| 2026-04-20 20:20 | 37.29497 | -121.85071 | 6219 ft | 260 kts | 136° |
| 2026-04-20 20:21 | 37.28289 | -121.83418 | 7702 ft | 266 kts | 128° |
| 2026-04-20 20:21 | 37.27150 | -121.81607 | 9144 ft | 272 kts | 128° |
| 2026-04-20 20:21 | 37.25953 | -121.79797 | 10535 ft | 278 kts | 134° |
| 2026-04-20 20:21 | 37.24517 | -121.78124 | 11749 ft | 290 kts | 138° |
| 2026-04-20 20:22 | 37.23517 | -121.77005 | 12541 ft | 297 kts | 138° |
| 2026-04-20 20:22 | 37.21323 | -121.74541 | 13214 ft | 340 kts | 138° |
| 2026-04-20 20:22 | 37.19495 | -121.72484 | 13953 ft | 360 kts | 138° |
| 2026-04-20 20:22 | 37.17622 | -121.70375 | 14921 ft | 369 kts | 137° |
| 2026-04-20 20:23 | 37.15696 | -121.68207 | 15966 ft | 375 kts | 137° |
| 2026-04-20 20:23 | 37.13756 | -121.66023 | 16976 ft | 380 kts | 137° |
| 2026-04-20 20:23 | 37.11778 | -121.63798 | 17932 ft | 386 kts | 137° |
| 2026-04-20 20:23 | 37.09739 | -121.61504 | 18638 ft | 395 kts | 137° |
| 2026-04-20 20:24 | 37.07703 | -121.59214 | 18930 ft | 399 kts | 137° |
| 2026-04-20 20:24 | 37.05626 | -121.56879 | 19000 ft | 398 kts | 137° |
| 2026-04-20 20:24 | 37.03583 | -121.54584 | 19001 ft | 396 kts | 137° |
| 2026-04-20 20:24 | 37.01524 | -121.52272 | 19001 ft | 394 kts | 137° |
| 2026-04-20 20:25 | 36.99468 | -121.49963 | 19002 ft | 394 kts | 137° |
| 2026-04-20 20:25 | 36.97440 | -121.47688 | 19058 ft | 404 kts | 137° |
| 2026-04-20 20:25 | 36.95305 | -121.45295 | 19774 ft | 411 kts | 137° |
| 2026-04-20 20:25 | 36.93221 | -121.42961 | 20780 ft | 409 kts | 137° |
| 2026-04-20 20:26 | 36.91107 | -121.40595 | 21677 ft | 409 kts | 137° |
| 2026-04-20 20:26 | 36.88961 | -121.38193 | 22437 ft | 413 kts | 137° |
| 2026-04-20 20:26 | 36.86822 | -121.35802 | 23107 ft | 417 kts | 137° |
| 2026-04-20 20:26 | 36.84661 | -121.33388 | 23740 ft | 421 kts | 138° |
| 2026-04-20 20:27 | 36.82453 | -121.30923 | 24358 ft | 425 kts | 138° |
| 2026-04-20 20:27 | 36.80242 | -121.28457 | 24943 ft | 429 kts | 138° |
| 2026-04-20 20:27 | 36.77992 | -121.25948 | 25501 ft | 433 kts | 138° |
| 2026-04-20 20:27 | 36.75753 | -121.23455 | 26023 ft | 436 kts | 138° |
| 2026-04-20 20:28 | 36.74215 | -121.21743 | 26363 ft | 439 kts | 138° |
| 2026-04-20 20:28 | 36.71176 | -121.18365 | 26995 ft | 443 kts | 138° |
| 2026-04-20 20:28 | 36.68865 | -121.15796 | 27444 ft | 447 kts | 138° |
| 2026-04-20 20:28 | 36.66536 | -121.13211 | 27874 ft | 450 kts | 138° |
| 2026-04-20 20:29 | 36.64168 | -121.10584 | 28289 ft | 453 kts | 138° |
| 2026-04-20 20:29 | 36.61802 | -121.07962 | 28682 ft | 455 kts | 138° |
| 2026-04-20 20:29 | 36.59388 | -121.05289 | 29062 ft | 458 kts | 138° |
| 2026-04-20 20:29 | 36.56998 | -121.02646 | 29412 ft | 460 kts | 138° |
| 2026-04-20 20:30 | 36.54566 | -120.99957 | 29742 ft | 463 kts | 138° |
| 2026-04-20 20:30 | 36.52144 | -120.97282 | 30045 ft | 465 kts | 138° |
| 2026-04-20 20:30 | 36.49670 | -120.94553 | 30370 ft | 469 kts | 138° |
| 2026-04-20 20:30 | 36.47243 | -120.91876 | 30737 ft | 471 kts | 138° |
| 2026-04-20 20:31 | 36.44768 | -120.89150 | 31098 ft | 473 kts | 138° |
| 2026-04-20 20:31 | 36.42272 | -120.86403 | 31422 ft | 475 kts | 138° |
| 2026-04-20 20:31 | 36.39777 | -120.83659 | 31711 ft | 477 kts | 138° |
| 2026-04-20 20:31 | 36.37291 | -120.80928 | 31973 ft | 479 kts | 138° |
| 2026-04-20 20:32 | 36.34793 | -120.78187 | 32465 ft | 475 kts | 138° |
| 2026-04-20 20:32 | 36.32359 | -120.75517 | 33212 ft | 466 kts | 138° |
| 2026-04-20 20:32 | 36.29950 | -120.72877 | 33986 ft | 456 kts | 138° |
| 2026-04-20 20:32 | 36.27591 | -120.70296 | 34669 ft | 450 kts | 138° |
| 2026-04-20 20:33 | 36.25244 | -120.67728 | 35229 ft | 446 kts | 138° |
| 2026-04-20 20:33 | 36.22947 | -120.65218 | 35681 ft | 444 kts | 138° |
| 2026-04-20 20:33 | 36.20614 | -120.62669 | 36077 ft | 444 kts | 138° |
| 2026-04-20 20:33 | 36.18279 | -120.60122 | 36435 ft | 444 kts | 138° |
| 2026-04-20 20:34 | 36.15972 | -120.57606 | 36758 ft | 445 kts | 138° |
| 2026-04-20 20:34 | 36.13631 | -120.55057 | 37067 ft | 446 kts | 138° |
| 2026-04-20 20:34 | 36.11318 | -120.52538 | 37367 ft | 446 kts | 138° |
| 2026-04-20 20:34 | 36.08985 | -120.50002 | 37663 ft | 446 kts | 138° |
| 2026-04-20 20:35 | 36.06638 | -120.47451 | 37952 ft | 446 kts | 138° |
| 2026-04-20 20:35 | 36.04265 | -120.44875 | 38234 ft | 446 kts | 138° |
| 2026-04-20 20:35 | 36.01944 | -120.42357 | 38498 ft | 446 kts | 138° |
| 2026-04-20 20:35 | 35.99598 | -120.39813 | 38755 ft | 446 kts | 138° |
| 2026-04-20 20:36 | 35.97286 | -120.37309 | 38997 ft | 446 kts | 138° |
| 2026-04-20 20:36 | 35.94950 | -120.34782 | 39233 ft | 446 kts | 139° |
| 2026-04-20 20:36 | 35.92586 | -120.32225 | 39461 ft | 446 kts | 139° |
| 2026-04-20 20:36 | 35.90237 | -120.29687 | 39676 ft | 446 kts | 139° |
| 2026-04-20 20:37 | 35.87897 | -120.27176 | 39879 ft | 446 kts | 140° |
| 2026-04-20 20:37 | 35.85369 | -120.24906 | 40004 ft | 448 kts | 147° |
| 2026-04-20 20:37 | 35.79995 | -120.20845 | 40001 ft | 451 kts | 148° |
| 2026-04-20 20:38 | 35.74631 | -120.16805 | 40002 ft | 449 kts | 148° |
| 2026-04-20 20:38 | 35.69317 | -120.12811 | 40002 ft | 448 kts | 148° |
| 2026-04-20 20:39 | 35.64003 | -120.08811 | 40002 ft | 447 kts | 148° |
| 2026-04-20 20:39 | 35.58699 | -120.04807 | 40002 ft | 447 kts | 148° |
| 2026-04-20 20:40 | 35.53349 | -120.00776 | 40002 ft | 447 kts | 148° |
| 2026-04-20 20:40 | 35.48045 | -119.96786 | 40002 ft | 447 kts | 148° |
| 2026-04-20 20:41 | 35.42730 | -119.92793 | 40002 ft | 447 kts | 148° |
| 2026-04-20 20:41 | 35.37431 | -119.88819 | 40001 ft | 447 kts | 148° |
| 2026-04-20 20:42 | 35.32158 | -119.84871 | 39789 ft | 439 kts | 148° |
| 2026-04-20 20:42 | 35.29514 | -119.82886 | 39319 ft | 440 kts | 147° |
| 2026-04-20 20:42 | 35.27036 | -119.80730 | 38775 ft | 442 kts | 142° |
| 2026-04-20 20:43 | 35.24601 | -119.78441 | 38252 ft | 444 kts | 142° |
| 2026-04-20 20:43 | 35.22135 | -119.76131 | 38028 ft | 444 kts | 142° |
| 2026-04-20 20:43 | 35.17219 | -119.71535 | 37422 ft | 443 kts | 142° |
| 2026-04-20 20:44 | 35.14803 | -119.69279 | 36716 ft | 442 kts | 142° |
| 2026-04-20 20:44 | 35.12330 | -119.66972 | 35875 ft | 441 kts | 142° |
| 2026-04-20 20:44 | 35.09901 | -119.64709 | 35034 ft | 441 kts | 142° |
| 2026-04-20 20:44 | 35.07435 | -119.62412 | 34182 ft | 442 kts | 142° |
| 2026-04-20 20:45 | 35.04990 | -119.60137 | 33338 ft | 443 kts | 142° |
| 2026-04-20 20:45 | 35.02541 | -119.57861 | 32488 ft | 440 kts | 142° |
| 2026-04-20 20:45 | 35.00113 | -119.55605 | 31638 ft | 435 kts | 142° |
| 2026-04-20 20:45 | 34.97728 | -119.53391 | 30808 ft | 427 kts | 142° |
| 2026-04-20 20:46 | 34.95373 | -119.51208 | 30229 ft | 419 kts | 142° |
| 2026-04-20 20:46 | 34.93025 | -119.49032 | 29802 ft | 420 kts | 142° |
| 2026-04-20 20:46 | 34.90702 | -119.46896 | 29320 ft | 418 kts | 143° |
| 2026-04-20 20:46 | 34.88349 | -119.44785 | 28841 ft | 415 kts | 143° |
| 2026-04-20 20:47 | 34.86084 | -119.42758 | 28375 ft | 411 kts | 143° |
| 2026-04-20 20:47 | 34.83757 | -119.40676 | 27910 ft | 407 kts | 143° |
| 2026-04-20 20:47 | 34.81487 | -119.38648 | 27627 ft | 402 kts | 143° |
| 2026-04-20 20:47 | 34.79223 | -119.36624 | 27376 ft | 404 kts | 143° |
| 2026-04-20 20:48 | 34.76914 | -119.34563 | 27128 ft | 411 kts | 144° |
| 2026-04-20 20:48 | 34.74602 | -119.32504 | 26998 ft | 413 kts | 144° |
| 2026-04-20 20:48 | 34.72253 | -119.30446 | 26996 ft | 413 kts | 144° |
| 2026-04-20 20:48 | 34.69929 | -119.28416 | 26999 ft | 415 kts | 144° |
| 2026-04-20 20:49 | 34.67578 | -119.26363 | 27000 ft | 416 kts | 144° |
| 2026-04-20 20:49 | 34.65197 | -119.24286 | 26894 ft | 407 kts | 144° |
| 2026-04-20 20:49 | 34.62851 | -119.22257 | 26367 ft | 411 kts | 144° |
| 2026-04-20 20:49 | 34.60522 | -119.20250 | 25771 ft | 410 kts | 144° |
| 2026-04-20 20:50 | 34.58187 | -119.18238 | 24852 ft | 409 kts | 144° |
| 2026-04-20 20:50 | 34.55849 | -119.16216 | 23532 ft | 410 kts | 144° |
| 2026-04-20 20:50 | 34.53575 | -119.14204 | 22618 ft | 400 kts | 144° |
| 2026-04-20 20:50 | 34.51367 | -119.12248 | 21866 ft | 389 kts | 144° |
| 2026-04-20 20:51 | 34.49171 | -119.10305 | 21251 ft | 389 kts | 144° |
| 2026-04-20 20:51 | 34.46976 | -119.08364 | 20698 ft | 390 kts | 144° |
| 2026-04-20 20:51 | 34.44853 | -119.06487 | 20165 ft | 389 kts | 144° |
| 2026-04-20 20:51 | 34.42687 | -119.04594 | 19620 ft | 386 kts | 144° |
| 2026-04-20 20:52 | 34.40490 | -119.02691 | 19064 ft | 383 kts | 144° |
| 2026-04-20 20:52 | 34.38329 | -119.00820 | 18513 ft | 380 kts | 144° |
| 2026-04-20 20:52 | 34.36181 | -118.98962 | 17961 ft | 377 kts | 144° |
| 2026-04-20 20:52 | 34.34061 | -118.97121 | 17411 ft | 374 kts | 143° |
| 2026-04-20 20:53 | 34.31985 | -118.95248 | 16936 ft | 369 kts | 143° |
| 2026-04-20 20:53 | 34.29921 | -118.93372 | 16598 ft | 368 kts | 143° |
| 2026-04-20 20:53 | 34.27870 | -118.91511 | 16106 ft | 368 kts | 143° |
| 2026-04-20 20:53 | 34.25883 | -118.89709 | 15609 ft | 351 kts | 143° |
| 2026-04-20 20:54 | 34.23975 | -118.87962 | 15115 ft | 334 kts | 142° |
| 2026-04-20 20:54 | 34.22162 | -118.86295 | 14624 ft | 320 kts | 142° |
| 2026-04-20 20:54 | 34.20410 | -118.84686 | 14128 ft | 309 kts | 142° |
| 2026-04-20 20:54 | 34.18733 | -118.83144 | 13637 ft | 301 kts | 142° |
| 2026-04-20 20:55 | 34.17067 | -118.81612 | 13138 ft | 301 kts | 142° |
| 2026-04-20 20:55 | 34.15461 | -118.79957 | 12630 ft | 300 kts | 137° |
| 2026-04-20 20:55 | 34.13920 | -118.78277 | 12129 ft | 298 kts | 137° |
| 2026-04-20 20:55 | 34.12392 | -118.76616 | 11630 ft | 296 kts | 137° |
| 2026-04-20 20:56 | 34.10871 | -118.74963 | 11130 ft | 294 kts | 137° |
| 2026-04-20 20:56 | 34.09355 | -118.73316 | 10629 ft | 291 kts | 137° |
| 2026-04-20 20:56 | 34.07841 | -118.71673 | 10124 ft | 289 kts | 137° |
| 2026-04-20 20:56 | 34.06358 | -118.70063 | 9626 ft | 287 kts | 137° |
| 2026-04-20 20:57 | 34.04868 | -118.68448 | 9143 ft | 284 kts | 137° |
| 2026-04-20 20:57 | 34.03553 | -118.66731 | 8945 ft | 265 kts | 121° |
| 2026-04-20 20:57 | 34.02850 | -118.64747 | 8655 ft | 259 kts | 102° |
| 2026-04-20 20:57 | 34.02601 | -118.62603 | 8291 ft | 258 kts | 96° |
| 2026-04-20 20:58 | 34.02400 | -118.60421 | 8221 ft | 258 kts | 96° |
| 2026-04-20 20:58 | 34.02201 | -118.58323 | 8114 ft | 247 kts | 96° |
| 2026-04-20 20:58 | 34.02007 | -118.56271 | 7941 ft | 238 kts | 96° |
| 2026-04-20 20:58 | 34.01822 | -118.54315 | 7680 ft | 235 kts | 96° |
| 2026-04-20 20:59 | 34.01637 | -118.52352 | 7389 ft | 234 kts | 96° |
| 2026-04-20 20:59 | 34.01453 | -118.50405 | 7096 ft | 233 kts | 96° |
| 2026-04-20 20:59 | 34.01271 | -118.48483 | 6924 ft | 229 kts | 96° |
| 2026-04-20 20:59 | 34.01090 | -118.46561 | 6898 ft | 225 kts | 96° |
| 2026-04-20 21:00 | 34.01142 | -118.44684 | 6580 ft | 226 kts | 78° |
| 2026-04-20 21:00 | 34.01474 | -118.42813 | 6244 ft | 227 kts | 77° |
| 2026-04-20 21:00 | 34.01799 | -118.40962 | 5975 ft | 225 kts | 78° |
| 2026-04-20 21:00 | 34.02121 | -118.39115 | 5918 ft | 225 kts | 78° |
| 2026-04-20 21:01 | 34.02444 | -118.37260 | 5917 ft | 226 kts | 78° |
| 2026-04-20 21:01 | 34.02741 | -118.35387 | 5909 ft | 227 kts | 81° |
| 2026-04-20 21:01 | 34.02939 | -118.33528 | 5888 ft | 219 kts | 83° |
| 2026-04-20 21:01 | 34.03128 | -118.31664 | 5657 ft | 229 kts | 83° |
| 2026-04-20 21:02 | 34.03314 | -118.29751 | 5292 ft | 231 kts | 83° |
| 2026-04-20 21:02 | 34.03498 | -118.27822 | 4946 ft | 230 kts | 83° |
| 2026-04-20 21:02 | 34.03680 | -118.25918 | 4686 ft | 225 kts | 83° |
| 2026-04-20 21:02 | 34.03857 | -118.24060 | 4446 ft | 220 kts | 83° |
| 2026-04-20 21:03 | 34.04030 | -118.22253 | 4206 ft | 215 kts | 83° |
| 2026-04-20 21:03 | 34.04200 | -118.20469 | 3961 ft | 212 kts | 83° |
| 2026-04-20 21:03 | 34.04367 | -118.18720 | 3715 ft | 210 kts | 83° |
| 2026-04-20 21:03 | 34.04535 | -118.16965 | 3515 ft | 207 kts | 83° |
| 2026-04-20 21:04 | 34.04437 | -118.15270 | 3253 ft | 206 kts | 114° |
| 2026-04-20 21:04 | 34.03500 | -118.14056 | 3077 ft | 194 kts | 154° |
| 2026-04-20 21:04 | 34.02204 | -118.13762 | 2922 ft | 185 kts | 176° |
| 2026-04-20 21:04 | 34.00907 | -118.13631 | 2919 ft | 187 kts | 173° |
| 2026-04-20 21:05 | 33.99611 | -118.13756 | 2915 ft | 187 kts | 194° |
| 2026-04-20 21:05 | 33.98324 | -118.14117 | 2919 ft | 188 kts | 192° |
| 2026-04-20 21:05 | 33.97048 | -118.14510 | 2917 ft | 187 kts | 201° |
| 2026-04-20 21:05 | 33.96080 | -118.15508 | 2909 ft | 187 kts | 245° |
| 2026-04-20 21:06 | 33.95884 | -118.17048 | 2923 ft | 187 kts | 267° |
| 2026-04-20 21:06 | 33.95742 | -118.18542 | 2895 ft | 176 kts | 262° |
| 2026-04-20 21:06 | 33.95581 | -118.20023 | 2898 ft | 180 kts | 263° |
| 2026-04-20 21:06 | 33.95426 | -118.21569 | 2787 ft | 187 kts | 263° |
| 2026-04-20 21:07 | 33.95279 | -118.23022 | 2585 ft | 160 kts | 263° |
| 2026-04-20 21:07 | 33.95150 | -118.24305 | 2394 ft | 149 kts | 263° |
| 2026-04-20 21:07 | 33.95026 | -118.25528 | 2193 ft | 144 kts | 263° |
| 2026-04-20 21:07 | 33.94908 | -118.26699 | 2007 ft | 135 kts | 263° |
| 2026-04-20 21:08 | 33.94800 | -118.27774 | 1846 ft | 126 kts | 263° |
| 2026-04-20 21:08 | 33.94696 | -118.28799 | 1665 ft | 121 kts | 263° |
| 2026-04-20 21:08 | 33.94594 | -118.29806 | 1508 ft | 121 kts | 263° |
| 2026-04-20 21:08 | 33.94493 | -118.30805 | 1354 ft | 119 kts | 263° |
| 2026-04-20 21:09 | 33.94392 | -118.31802 | 1187 ft | 119 kts | 263° |
| 2026-04-20 21:09 | 33.94292 | -118.32790 | 1038 ft | 118 kts | 263° |
| 2026-04-20 21:09 | 33.94191 | -118.33791 | 868 ft | 118 kts | 263° |
| 2026-04-20 21:09 | 33.94091 | -118.34772 | 721 ft | 118 kts | 263° |
| 2026-04-20 21:10 | 33.93991 | -118.35753 | 545 ft | 117 kts | 262° |
| 2026-04-20 21:10 | 33.93876 | -118.36716 | 387 ft | 116 kts | 261° |
| 2026-04-20 21:10 | 33.93779 | -118.37705 | 282 ft | 119 kts | 262° |
| 2026-04-20 21:10 | 33.93686 | -118.38666 | 117 ft | 110 kts | 263° |
| 2026-04-20 21:11 | 33.93610 | -118.39465 | 110 ft | 71 kts | 264° |
| 2026-04-20 21:11 | 33.93559 | -118.39945 | 117 ft | 32 kts | 259° |
| 2026-04-20 21:11 | 33.93509 | -118.40153 | 120 ft | 19 kts | 248° |
| 2026-04-20 21:11 | 33.93474 | -118.40202 | 120 ft | 4 kts | 192° |
| 2026-04-20 21:12 | 33.93449 | -118.40205 | 120 ft | 2 kts | 184° |
| 2026-04-20 21:12 | 33.93435 | -118.40197 | 120 ft | 4 kts | 120° |
| 2026-04-20 21:12 | 33.93425 | -118.40131 | 119 ft | 9 kts | 80° |
| 2026-04-20 21:12 | 33.93431 | -118.40064 | 118 ft | 9 kts | 83° |
| 2026-04-20 21:13 | 33.93441 | -118.39963 | 117 ft | 15 kts | 83° |
| 2026-04-20 21:13 | 33.93449 | -118.39883 | 116 ft | 10 kts | 83° |
| 2026-04-20 21:13 | 33.93457 | -118.39798 | 114 ft | 11 kts | 83° |
| 2026-04-20 21:13 | 33.93464 | -118.39726 | 114 ft | 8 kts | 82° |
| 2026-04-20 21:14 | 33.93473 | -118.39638 | 112 ft | 12 kts | 84° |
| 2026-04-20 21:14 | 33.93484 | -118.39539 | 111 ft | 12 kts | 83° |
| 2026-04-20 21:14 | 33.93495 | -118.39431 | 110 ft | 11 kts | 90° |
| 2026-04-20 21:14 | 33.93448 | -118.39389 | 109 ft | 10 kts | 183° |
| 2026-04-20 21:15 | 33.93428 | -118.39457 | 110 ft | 10 kts | 267° |